Time;durP1;ratioP1;P1;durP2;ratioP2;P2;SDS_P1;SDS_P2;PMS_P1;PMS_P2;Temp;Humidity;BMP_temperature;BMP_pressure;BME280_temperature;BME280_humidity;BME280_pressure;Samples;Min_cycle;Max_cycle;Signal;HPM_P1;HPM_P2
2023/03/10 00:00:40;;;;;;;0.08;0.08;;;;;;;16.63;47.48;99263.34;2104613;28;20127;-56
2023/03/10 00:01:41;;;;;;;0.10;0.10;;;;;;;16.65;47.50;99260.97;2104054;28;20417;-56
2023/03/10 00:02:48;;;;;;;0.08;0.08;;;;;;;16.66;47.49;99267.97;2104087;28;20044;-56
2023/03/10 00:03:51;;;;;;;0.10;0.10;;;;;;;16.64;47.50;99270.31;2104916;28;20050;-56
2023/03/10 00:04:54;;;;;;;0.10;0.10;;;;;;;16.64;47.65;99264.88;2106896;28;20068;-56
2023/03/10 00:05:58;;;;;;;0.00;0.00;;;;;;;16.63;47.39;99257.91;2102707;28;20135;-56
2023/03/10 00:07:01;;;;;;;0.10;0.10;;;;;;;16.63;47.33;99263.34;2100421;28;20052;-56
2023/03/10 00:08:03;;;;;;;0.08;0.08;;;;;;;16.63;47.46;99263.34;2108322;28;20100;-56
2023/03/10 00:09:11;;;;;;;0.10;0.10;;;;;;;16.63;47.34;99269.56;2103669;28;20060;-56
2023/03/10 00:10:14;;;;;;;0.10;0.10;;;;;;;16.62;47.27;99259.84;2108680;28;20563;-56
2023/03/10 00:11:17;;;;;;;0.10;0.10;;;;;;;16.61;47.53;99257.53;2111204;28;20713;-56
2023/03/10 00:12:21;;;;;;;0.10;0.10;;;;;;;16.61;47.21;99254.81;2104591;28;20158;-56
2023/03/10 00:13:24;;;;;;;0.00;0.00;;;;;;;16.61;47.26;99252.09;2104952;28;20534;-56
2023/03/10 00:14:26;;;;;;;0.00;0.00;;;;;;;16.61;47.09;99252.88;2094689;28;20134;-56
2023/03/10 00:15:30;;;;;;;0.00;0.00;;;;;;;16.61;47.40;99249.38;2095122;28;20053;-56
2023/03/10 00:16:32;;;;;;;0.00;0.00;;;;;;;16.61;47.31;99247.41;2110718;28;20432;-56
2023/03/10 00:17:35;;;;;;;0.03;0.03;;;;;;;16.61;46.81;99246.63;2109344;28;20075;-56
2023/03/10 00:18:38;;;;;;;0.00;0.00;;;;;;;16.60;47.04;99242.38;2107384;28;20123;-57
2023/03/10 00:19:40;;;;;;;0.05;0.05;;;;;;;16.59;47.25;99241.59;2105564;28;20070;-57
2023/03/10 00:20:42;;;;;;;0.00;0.00;;;;;;;16.60;47.03;99243.16;2104884;28;20055;-56
2023/03/10 00:21:44;;;;;;;0.00;0.00;;;;;;;16.59;47.06;99244.34;2111106;28;20594;-56
2023/03/10 00:22:47;;;;;;;0.08;0.08;;;;;;;16.59;46.97;99244.34;2107399;28;20223;-56
2023/03/10 00:23:50;;;;;;;0.00;0.00;;;;;;;16.59;46.90;99247.06;2107918;28;20041;-56
2023/03/10 00:24:54;;;;;;;0.00;0.00;;;;;;;16.60;46.96;99242.38;2106742;28;20094;-57
2023/03/10 00:25:58;;;;;;;0.10;0.10;;;;;;;16.59;46.83;99241.59;2098892;28;20099;-56
2023/03/10 00:27:01;;;;;;;0.00;0.00;;;;;;;16.56;46.76;99231.56;2095806;28;20689;-56
2023/03/10 00:28:03;;;;;;;0.00;0.00;;;;;;;16.56;47.38;99237.00;2105652;28;20529;-56
2023/03/10 00:29:06;;;;;;;0.00;0.00;;;;;;;16.57;46.83;99233.06;2106071;28;20134;-56
2023/03/10 00:30:09;;;;;;;0.10;0.10;;;;;;;16.58;46.88;99239.31;2104868;28;20062;-56
2023/03/10 00:31:14;;;;;;;0.00;0.00;;;;;;;16.58;46.91;99231.13;2112561;28;20114;-56
2023/03/10 00:32:16;;;;;;;0.05;0.05;;;;;;;16.55;46.69;99227.31;2110048;28;20478;-56
2023/03/10 00:33:18;;;;;;;0.00;0.00;;;;;;;16.55;46.75;99227.31;2105868;28;20531;-56
2023/03/10 00:34:21;;;;;;;0.00;0.00;;;;;;;16.54;46.72;99217.56;2105364;28;20166;-56
2023/03/10 00:35:26;;;;;;;0.00;0.00;;;;;;;16.54;46.76;99219.56;2103290;28;20056;-56
2023/03/10 00:36:30;;;;;;;0.00;0.00;;;;;;;16.53;46.39;99226.94;2096907;28;20524;-60
2023/03/10 00:37:35;;;;;;;0.00;0.00;;;;;;;16.53;46.32;99220.72;2107956;28;20580;-57
2023/03/10 00:38:40;;;;;;;0.00;0.00;;;;;;;16.52;46.67;99225.41;2106810;28;20608;-56
2023/03/10 00:39:42;;;;;;;0.00;0.00;;;;;;;16.51;46.40;99223.88;2110458;28;20060;-57
2023/03/10 00:40:46;;;;;;;0.10;0.10;;;;;;;16.52;46.55;99224.63;2108471;28;20055;-56
2023/03/10 00:41:49;;;;;;;0.00;0.00;;;;;;;16.51;46.49;99220.38;2106074;28;20624;-56
2023/03/10 00:42:51;;;;;;;0.05;0.05;;;;;;;16.51;46.68;99223.13;2105526;28;20056;-56
2023/03/10 00:43:54;;;;;;;0.00;0.00;;;;;;;16.50;46.27;99224.28;2105358;28;20056;-57
2023/03/10 00:44:56;;;;;;;0.00;0.00;;;;;;;16.50;46.22;99227.78;2105362;28;20064;-56
2023/03/10 00:45:59;;;;;;;0.00;0.00;;;;;;;16.50;46.40;99221.56;2112734;28;20220;-56
2023/03/10 00:47:02;;;;;;;0.10;0.10;;;;;;;16.51;46.23;99217.66;2108513;28;20047;-57
2023/03/10 00:48:04;;;;;;;0.08;0.08;;;;;;;16.50;46.17;99216.09;2108857;28;20431;-56
2023/03/10 00:49:10;;;;;;;0.00;0.00;;;;;;;16.50;46.21;99210.66;2105561;28;20055;-56
2023/03/10 00:50:12;;;;;;;0.10;0.10;;;;;;;16.48;46.23;99216.53;2108920;28;20075;-56
2023/03/10 00:51:14;;;;;;;0.05;0.05;;;;;;;16.49;46.17;99209.88;2110240;28;20051;-56
2023/03/10 00:52:16;;;;;;;0.00;0.00;;;;;;;16.49;46.04;99206.41;2105312;28;20059;-56
2023/03/10 00:53:20;;;;;;;0.00;0.00;;;;;;;16.50;46.21;99207.94;2106663;28;20049;-56
2023/03/10 00:54:21;;;;;;;0.15;0.15;;;;;;;16.49;46.25;99209.88;2107396;28;20044;-56
2023/03/10 00:55:24;;;;;;;0.10;0.10;;;;;;;16.49;45.88;99203.69;2107522;28;20055;-56
2023/03/10 00:56:29;;;;;;;0.00;0.00;;;;;;;16.50;46.05;99207.94;2108209;28;20063;-56
2023/03/10 00:57:32;;;;;;;0.00;0.00;;;;;;;16.48;45.91;99202.91;2105315;28;20048;-57
2023/03/10 00:58:34;;;;;;;0.10;0.10;;;;;;;16.47;45.86;99200.59;2105833;28;20108;-56
2023/03/10 00:59:37;;;;;;;0.00;0.00;;;;;;;16.47;45.94;99195.16;2110586;28;20087;-57
2023/03/10 01:00:51;;;;;;;0.00;0.00;;;;;;;16.44;45.78;99191.28;2106182;28;20052;-56
2023/03/10 01:01:54;;;;;;;0.10;0.10;;;;;;;16.45;45.85;99195.56;2105784;28;20505;-57
2023/03/10 01:02:57;;;;;;;0.10;0.10;;;;;;;16.46;45.81;99196.34;2108202;28;20047;-56
2023/03/10 01:04:02;;;;;;;0.10;0.10;;;;;;;16.47;45.76;99197.88;2105896;28;20052;-57
2023/03/10 01:05:05;;;;;;;0.05;0.05;;;;;;;16.46;45.63;99199.06;2106335;28;20079;-56
2023/03/10 01:06:08;;;;;;;0.00;0.00;;;;;;;16.46;45.79;99193.63;2102648;28;20059;-56
2023/03/10 01:07:10;;;;;;;0.08;0.08;;;;;;;16.46;45.61;99193.63;2095535;28;20155;-56
2023/03/10 01:08:13;;;;;;;0.00;0.00;;;;;;;16.44;46.02;99189.34;2102677;28;20055;-56
2023/03/10 01:09:16;;;;;;;0.00;0.00;;;;;;;16.44;45.68;99196.75;2108462;28;20458;-56
2023/03/10 01:10:20;;;;;;;0.00;0.00;;;;;;;16.44;45.63;99192.06;2104884;27;20055;-56
2023/03/10 01:11:24;;;;;;;0.00;0.00;;;;;;;16.43;45.48;99190.50;2098088;28;20165;-56
2023/03/10 01:12:29;;;;;;;0.05;0.05;;;;;;;16.44;45.48;99196.75;2096890;28;20097;-56
2023/03/10 01:13:31;;;;;;;0.03;0.03;;;;;;;16.41;45.35;99184.72;2098222;28;20048;-56
2023/03/10 01:14:34;;;;;;;0.03;0.03;;;;;;;16.42;45.29;99194.44;2100981;28;20580;-56
2023/03/10 01:15:36;;;;;;;0.03;0.03;;;;;;;16.41;45.31;99187.44;2106743;28;20082;-56
2023/03/10 01:16:39;;;;;;;0.03;0.03;;;;;;;16.41;45.29;99186.69;2106064;28;20052;-56
2023/03/10 01:17:41;;;;;;;0.08;0.08;;;;;;;16.41;45.28;99187.44;2105621;28;20101;-56
2023/03/10 01:18:44;;;;;;;0.00;0.00;;;;;;;16.38;45.18;99177.38;2109541;28;20051;-56
2023/03/10 01:19:46;;;;;;;0.03;0.03;;;;;;;16.41;45.31;99179.25;2105097;28;20048;-57
2023/03/10 01:20:49;;;;;;;0.00;0.00;;;;;;;16.40;45.38;99180.47;2088858;28;20053;-56
2023/03/10 01:21:51;;;;;;;0.00;0.00;;;;;;;16.39;45.16;99176.19;2087855;28;20056;-56
2023/03/10 01:22:54;;;;;;;0.05;0.05;;;;;;;16.38;45.22;99182.81;2105157;28;20119;-56
2023/03/10 01:23:59;;;;;;;0.10;0.10;;;;;;;16.40;45.14;99183.19;2102168;28;20469;-56
2023/03/10 01:25:01;;;;;;;0.00;0.00;;;;;;;16.39;45.06;99178.16;2103612;28;20095;-56
2023/03/10 01:26:04;;;;;;;0.10;0.10;;;;;;;16.39;44.99;99184.34;2107744;28;20127;-56
2023/03/10 01:27:05;;;;;;;0.10;0.10;;;;;;;16.39;45.02;99178.91;2107932;28;20500;-56
2023/03/10 01:28:10;;;;;;;0.00;0.00;;;;;;;16.39;45.27;99184.34;2110807;28;20574;-57
2023/03/10 01:29:12;;;;;;;0.00;0.00;;;;;;;16.38;44.88;99184.78;2107784;28;20075;-56
2023/03/10 01:30:15;;;;;;;0.05;0.05;;;;;;;16.37;45.25;99185.97;2105647;28;20052;-56
2023/03/10 01:31:18;;;;;;;0.00;0.00;;;;;;;16.37;44.93;99178.56;2106455;28;20063;-56
2023/03/10 01:32:21;;;;;;;0.00;0.00;;;;;;;16.36;44.90;99179.75;2098576;28;20047;-56
2023/03/10 01:33:23;;;;;;;0.00;0.00;;;;;;;16.37;44.89;99185.97;2101658;28;20147;-56
2023/03/10 01:34:27;;;;;;;0.00;0.00;;;;;;;16.36;44.79;99182.47;2097795;28;20048;-56
2023/03/10 01:35:29;;;;;;;0.10;0.10;;;;;;;16.35;44.91;99182.91;2097702;28;20087;-56
2023/03/10 01:36:32;;;;;;;0.00;0.00;;;;;;;16.35;44.92;99183.66;2106719;28;20094;-56
2023/03/10 01:37:34;;;;;;;0.03;0.03;;;;;;;16.35;44.79;99183.66;2099868;28;20058;-56
2023/03/10 01:38:37;;;;;;;0.08;0.08;;;;;;;16.34;44.59;99176.69;2092487;28;20135;-57
2023/03/10 01:39:39;;;;;;;0.03;0.03;;;;;;;16.35;44.68;99177.44;2098776;28;20502;-57
2023/03/10 01:40:48;;;;;;;0.00;0.00;;;;;;;16.34;44.72;99182.16;2106792;28;20071;-56
2023/03/10 01:41:50;;;;;;;0.10;0.10;;;;;;;16.33;44.92;99182.56;2103879;28;20536;-56
2023/03/10 01:42:53;;;;;;;0.00;0.00;;;;;;;16.35;45.01;99185.63;2102799;28;20048;-56
2023/03/10 01:43:56;;;;;;;0.03;0.03;;;;;;;16.35;44.38;99180.94;2106856;28;20456;-57
2023/03/10 01:45:05;;;;;;;0.00;0.00;;;;;;;16.34;44.35;99187.59;2105023;28;20056;-56
2023/03/10 01:46:45;;;;;;;0.00;0.00;;;;;;;16.24;44.42;99187.78;2107135;28;20568;-56
2023/03/10 01:47:53;;;;;;;0.10;0.10;;;;;;;16.23;44.67;99181.59;2102332;28;20100;-56
2023/03/10 01:49:00;;;;;;;0.00;0.00;;;;;;;16.28;44.59;99174.88;2090393;28;20773;-56
2023/03/10 01:50:05;;;;;;;0.10;0.10;;;;;;;16.29;44.24;99171.72;2089271;28;20060;-56
2023/03/10 01:51:07;;;;;;;0.08;0.08;;;;;;;16.29;44.47;99179.13;2086194;28;20067;-56
2023/03/10 01:52:16;;;;;;;0.10;0.10;;;;;;;16.31;44.33;99177.53;2097027;28;20552;-56
2023/03/10 01:53:19;;;;;;;0.00;0.00;;;;;;;16.30;44.50;99180.66;2104959;28;20060;-56
2023/03/10 01:54:26;;;;;;;0.00;0.00;;;;;;;16.29;44.32;99179.91;2104975;28;20550;-57
2023/03/10 01:55:31;;;;;;;0.05;0.05;;;;;;;16.31;44.20;99180.25;2106974;28;20520;-56
2023/03/10 01:56:34;;;;;;;0.10;0.10;;;;;;;16.30;44.25;99175.22;2106039;28;20505;-56
2023/03/10 01:57:41;;;;;;;0.10;0.10;;;;;;;16.32;44.07;99181.00;2105107;28;20052;-56
2023/03/10 01:58:45;;;;;;;0.10;0.10;;;;;;;16.30;43.85;99184.16;2106134;28;20118;-56
2023/03/10 01:59:50;;;;;;;0.10;0.10;;;;;;;16.31;43.99;99176.75;2106340;28;20154;-56
2023/03/10 02:00:53;;;;;;;0.00;0.00;;;;;;;16.29;44.16;99177.19;2087193;28;20053;-57
2023/03/10 02:01:58;;;;;;;0.10;0.10;;;;;;;16.28;43.85;99175.63;2089404;28;20083;-57
2023/03/10 02:03:08;;;;;;;0.08;0.08;;;;;;;16.27;44.02;99182.28;2101531;28;20051;-57
2023/03/10 02:04:16;;;;;;;0.08;0.08;;;;;;;16.27;43.82;99185.00;2102363;28;20056;-56
2023/03/10 02:05:19;;;;;;;0.10;0.10;;;;;;;16.26;43.93;99175.28;2109203;28;20454;-56
2023/03/10 02:06:23;;;;;;;0.10;0.10;;;;;;;16.27;43.79;99176.81;2112946;28;20454;-56
2023/03/10 02:07:29;;;;;;;0.08;0.08;;;;;;;16.26;43.84;99180.75;2110549;28;20047;-56
2023/03/10 02:08:36;;;;;;;0.10;0.10;;;;;;;16.27;43.84;99174.09;2112308;28;20267;-56
2023/03/10 02:09:43;;;;;;;0.03;0.03;;;;;;;16.25;43.83;99168.28;2110386;28;20104;-56
2023/03/10 02:10:47;;;;;;;0.03;0.03;;;;;;;16.23;43.58;99159.78;2105090;28;20052;-57
2023/03/10 02:11:51;;;;;;;0.00;0.00;;;;;;;16.26;43.56;99158.94;2104135;28;20047;-56
2023/03/10 02:12:54;;;;;;;0.10;0.10;;;;;;;16.26;43.59;99164.41;2103782;28;20087;-56
2023/03/10 02:14:01;;;;;;;0.00;0.00;;;;;;;16.26;43.54;99164.41;2101270;28;20504;-56
2023/03/10 02:15:08;;;;;;;0.05;0.05;;;;;;;16.25;43.51;99165.56;2108156;28;20052;-56
2023/03/10 02:16:10;;;;;;;0.08;0.08;;;;;;;16.25;43.74;99154.69;2107146;28;20428;-56
2023/03/10 02:17:16;;;;;;;0.10;0.10;;;;;;;16.25;43.45;99160.13;2110398;28;20138;-56
2023/03/10 02:18:20;;;;;;;0.10;0.10;;;;;;;16.25;43.53;99162.84;2111414;27;20143;-56
2023/03/10 02:19:45;;;;;;;0.10;0.10;;;;;;;16.23;43.43;99165.25;2105179;28;20481;-56
2023/03/10 02:20:55;;;;;;;0.10;0.10;;;;;;;16.20;44.06;99155.19;2105109;28;20048;-56
2023/03/10 02:22:05;;;;;;;0.00;0.00;;;;;;;16.19;43.55;99147.41;2107016;28;20048;-56
2023/03/10 02:23:09;;;;;;;0.10;0.10;;;;;;;16.18;43.58;99146.66;2106868;28;20104;-56
2023/03/10 02:24:21;;;;;;;0.00;0.00;;;;;;;16.18;43.56;99151.34;2098596;28;20052;-56
2023/03/10 02:25:37;;;;;;;0.03;0.03;;;;;;;16.15;43.63;99147.50;2104986;28;20048;-56
2023/03/10 02:26:47;;;;;;;0.10;0.10;;;;;;;16.16;43.49;99145.53;2106919;28;20062;-56
2023/03/10 02:27:54;;;;;;;0.10;0.10;;;;;;;16.19;43.78;99147.41;2103079;28;20043;-56
2023/03/10 02:29:00;;;;;;;0.10;0.10;;;;;;;16.18;43.29;99141.22;2087791;28;20060;-57
2023/03/10 02:30:07;;;;;;;0.08;0.08;;;;;;;16.18;43.29;99140.44;2099002;28;20143;-57
2023/03/10 02:31:11;;;;;;;0.10;0.10;;;;;;;16.17;43.35;99139.66;2098440;28;20059;-57
2023/03/10 02:32:15;;;;;;;0.08;0.08;;;;;;;16.17;43.49;99139.66;2087937;28;20388;-57
2023/03/10 02:33:22;;;;;;;0.10;0.10;;;;;;;16.16;43.37;99138.13;2091721;28;20453;-56
2023/03/10 02:34:30;;;;;;;0.00;0.00;;;;;;;16.17;43.35;99139.66;2094995;28;20044;-56
2023/03/10 02:35:32;;;;;;;0.10;0.10;;;;;;;16.15;43.29;99136.59;2091211;28;20048;-57
2023/03/10 02:36:40;;;;;;;0.10;0.10;;;;;;;16.14;43.39;99134.31;2096341;28;20057;-56
2023/03/10 02:37:45;;;;;;;0.10;0.10;;;;;;;16.14;43.27;99140.50;2103918;28;20517;-56
2023/03/10 02:38:49;;;;;;;0.10;0.10;;;;;;;16.16;43.63;99140.09;2105388;28;20052;-56
2023/03/10 02:39:52;;;;;;;0.08;0.08;;;;;;;16.16;43.39;99138.13;2096560;28;20095;-57
2023/03/10 02:40:56;;;;;;;0.05;0.05;;;;;;;16.17;43.42;99141.63;2087961;28;20131;-56
2023/03/10 02:42:03;;;;;;;0.10;0.10;;;;;;;16.15;43.36;99141.28;2090923;28;20970;-56
2023/03/10 02:43:14;;;;;;;0.10;0.10;;;;;;;16.15;43.12;99147.50;2100816;28;20674;-56
2023/03/10 02:44:20;;;;;;;0.00;0.00;;;;;;;16.15;43.13;99141.28;2104952;28;20161;-56
2023/03/10 02:45:25;;;;;;;0.00;0.00;;;;;;;16.15;43.19;99141.28;2110628;28;20078;-56
2023/03/10 02:46:28;;;;;;;0.00;0.00;;;;;;;16.14;43.19;99129.59;2103560;28;20494;-57
2023/03/10 02:47:30;;;;;;;0.00;0.00;;;;;;;16.15;43.29;99131.16;2095484;28;20086;-57
2023/03/10 02:48:36;;;;;;;0.03;0.03;;;;;;;16.15;43.07;99133.88;2102728;28;20728;-56
2023/03/10 02:49:43;;;;;;;0.00;0.00;;;;;;;16.10;43.20;99131.66;2100851;28;20063;-57
2023/03/10 02:50:47;;;;;;;0.00;0.00;;;;;;;16.16;43.00;99137.34;2095793;28;20067;-57
2023/03/10 02:51:49;;;;;;;0.10;0.10;;;;;;;16.13;43.07;99130.81;2105684;28;20054;-56
2023/03/10 02:53:01;;;;;;;0.00;0.00;;;;;;;16.14;42.90;99134.31;2100043;28;20410;-56
2023/03/10 02:54:04;;;;;;;0.00;0.00;;;;;;;16.13;42.97;99132.75;2103820;28;20061;-56
2023/03/10 02:55:07;;;;;;;0.00;0.00;;;;;;;16.15;42.77;99135.84;2097748;28;20080;-56
2023/03/10 02:56:09;;;;;;;0.00;0.00;;;;;;;16.14;42.85;99129.59;2094868;28;20052;-56
2023/03/10 02:57:14;;;;;;;0.00;0.00;;;;;;;16.14;43.18;99126.13;2087843;28;20056;-56
2023/03/10 02:58:18;;;;;;;0.00;0.00;;;;;;;16.15;43.15;99131.16;2096021;28;20714;-56
2023/03/10 02:59:21;;;;;;;0.00;0.00;;;;;;;16.11;43.01;99125.00;2106314;28;20492;-56
2023/03/10 03:00:27;;;;;;;0.13;0.13;;;;;;;16.13;42.86;99130.03;2087297;28;20589;-56
2023/03/10 03:01:30;;;;;;;0.10;0.10;;;;;;;16.14;42.89;99131.59;2092627;28;20146;-56
2023/03/10 03:02:33;;;;;;;0.00;0.00;;;;;;;16.13;42.83;99130.03;2103476;28;20048;-56
2023/03/10 03:03:36;;;;;;;0.00;0.00;;;;;;;16.13;42.86;99128.09;2103513;28;20048;-57
2023/03/10 03:04:38;;;;;;;0.00;0.00;;;;;;;16.12;43.01;99134.72;2099953;28;20490;-57
2023/03/10 03:05:41;;;;;;;0.10;0.10;;;;;;;16.12;42.82;99136.66;2095715;28;20106;-56
2023/03/10 03:06:43;;;;;;;0.00;0.00;;;;;;;16.12;42.83;99137.44;2096308;28;20063;-56
2023/03/10 03:07:46;;;;;;;0.03;0.03;;;;;;;16.13;43.07;99133.53;2097976;28;20052;-56
2023/03/10 03:08:48;;;;;;;0.00;0.00;;;;;;;16.12;42.86;99140.16;2101597;28;20055;-56
2023/03/10 03:09:54;;;;;;;0.00;0.00;;;;;;;16.11;42.84;99135.16;2097817;28;20059;-56
2023/03/10 03:10:56;;;;;;;0.00;0.00;;;;;;;16.10;42.75;99139.81;2097517;28;20053;-57
2023/03/10 03:12:00;;;;;;;0.10;0.10;;;;;;;16.10;42.96;99134.38;2112083;28;20051;-56
2023/03/10 03:13:02;;;;;;;0.00;0.00;;;;;;;16.09;42.85;99132.81;2098006;28;20508;-56
2023/03/10 03:14:07;;;;;;;0.00;0.00;;;;;;;16.11;42.73;99133.16;2089113;28;20135;-56
2023/03/10 03:15:10;;;;;;;0.00;0.00;;;;;;;16.09;42.70;99130.09;2092397;28;20123;-56
2023/03/10 03:16:13;;;;;;;0.10;0.10;;;;;;;16.09;43.01;99126.63;2098523;28;20069;-56
2023/03/10 03:17:17;;;;;;;0.00;0.00;;;;;;;16.08;42.43;99128.56;2100703;28;20132;-56
2023/03/10 03:18:20;;;;;;;0.03;0.03;;;;;;;16.09;42.74;99127.38;2103606;28;20097;-56
2023/03/10 03:19:22;;;;;;;0.35;0.35;;;;;;;16.08;42.69;99123.13;2103140;28;20048;-56
2023/03/10 03:20:26;;;;;;;0.10;0.10;;;;;;;16.09;42.40;99127.38;2103419;28;20055;-56
2023/03/10 03:21:30;;;;;;;0.10;0.10;;;;;;;16.08;42.66;99125.06;2103078;28;20059;-56
2023/03/10 03:22:33;;;;;;;0.10;0.10;;;;;;;16.06;42.85;99119.28;2092132;28;20115;-56
2023/03/10 03:23:36;;;;;;;0.00;0.00;;;;;;;16.06;42.78;99119.28;2100853;28;20131;-56
2023/03/10 03:24:41;;;;;;;0.00;0.00;;;;;;;16.05;42.84;99120.47;2102033;28;20051;-56
2023/03/10 03:25:43;;;;;;;0.00;0.00;;;;;;;16.06;42.85;99122.00;2090466;28;20476;-56
2023/03/10 03:26:49;;;;;;;0.10;0.10;;;;;;;16.05;42.62;99126.69;2096297;28;20052;-56
2023/03/10 03:27:55;;;;;;;0.05;0.05;;;;;;;16.04;42.63;99118.94;2102859;28;20189;-56
2023/03/10 03:28:58;;;;;;;0.00;0.00;;;;;;;16.06;42.68;99122.75;2091211;28;20048;-56
2023/03/10 03:30:08;;;;;;;0.00;0.00;;;;;;;15.96;42.50;99106.66;2087082;28;20053;-56
2023/03/10 03:31:17;;;;;;;0.10;0.10;;;;;;;16.02;42.68;99121.31;2094094;28;20105;-56
2023/03/10 03:32:19;;;;;;;0.10;0.10;;;;;;;16.03;42.56;99118.16;2093006;28;20052;-56
2023/03/10 03:33:22;;;;;;;0.03;0.03;;;;;;;16.03;42.40;99120.88;2096284;28;20093;-56
2023/03/10 03:34:24;;;;;;;0.05;0.05;;;;;;;16.03;42.58;99120.88;2104774;28;20056;-57
2023/03/10 03:35:32;;;;;;;0.05;0.05;;;;;;;16.03;42.58;99115.44;2106910;28;20078;-57
2023/03/10 03:36:36;;;;;;;0.03;0.03;;;;;;;16.02;42.55;99122.06;2099167;28;20048;-57
2023/03/10 03:37:39;;;;;;;0.00;0.00;;;;;;;16.03;42.54;99122.84;2089355;28;20091;-56
2023/03/10 03:38:41;;;;;;;0.00;0.00;;;;;;;16.01;42.73;99123.28;2088572;28;20513;-56
2023/03/10 03:39:44;;;;;;;0.05;0.05;;;;;;;16.01;42.53;99123.28;2100320;28;20058;-57
2023/03/10 03:40:46;;;;;;;0.00;0.00;;;;;;;16.01;42.58;99120.56;2093177;28;20063;-56
2023/03/10 03:41:52;;;;;;;0.00;0.00;;;;;;;16.01;42.47;99117.81;2095220;28;20496;-56
2023/03/10 03:42:54;;;;;;;0.08;0.08;;;;;;;16.01;42.33;99114.31;2095288;28;20508;-57
2023/03/10 03:43:58;;;;;;;0.05;0.05;;;;;;;16.01;42.53;99109.66;2095175;28;20060;-56
2023/03/10 03:45:00;;;;;;;0.10;0.10;;;;;;;16.00;42.68;99110.81;2090133;28;20545;-56
2023/03/10 03:46:04;;;;;;;0.00;0.00;;;;;;;16.01;42.50;99109.66;2095953;28;20052;-56
2023/03/10 03:47:07;;;;;;;0.00;0.00;;;;;;;15.99;42.50;99106.59;2102425;28;20497;-56
2023/03/10 03:48:13;;;;;;;0.00;0.00;;;;;;;16.00;42.57;99113.56;2094815;28;21533;-56
2023/03/10 03:49:15;;;;;;;0.00;0.00;;;;;;;15.99;42.63;99112.03;2091720;28;20048;-56
2023/03/10 03:50:21;;;;;;;0.00;0.00;;;;;;;15.99;42.59;99116.69;2089054;28;20166;-56
2023/03/10 03:51:25;;;;;;;0.10;0.10;;;;;;;15.99;42.53;99114.75;2084596;28;20116;-56
2023/03/10 03:52:28;;;;;;;0.00;0.00;;;;;;;15.98;42.49;99113.19;2092628;28;20465;-56
2023/03/10 03:53:33;;;;;;;0.03;0.03;;;;;;;15.98;42.35;99115.91;2104777;28;20117;-56
2023/03/10 03:54:36;;;;;;;0.08;0.08;;;;;;;15.98;42.32;99115.16;2098494;28;20133;-56
2023/03/10 03:55:39;;;;;;;0.10;0.10;;;;;;;15.98;42.39;99115.91;2102892;28;20097;-56
2023/03/10 03:56:42;;;;;;;0.13;0.13;;;;;;;15.98;42.61;99118.63;2090895;28;20139;-56
2023/03/10 03:57:47;;;;;;;0.03;0.03;;;;;;;15.97;42.55;99108.16;2087055;28;20490;-56
2023/03/10 03:58:49;;;;;;;0.05;0.05;;;;;;;15.91;42.51;99094.28;2092484;28;20060;-56
2023/03/10 03:59:53;;;;;;;0.10;0.10;;;;;;;15.96;42.33;99107.41;2088835;28;20060;-57
2023/03/10 04:00:55;;;;;;;0.08;0.08;;;;;;;15.96;42.34;99107.41;2094964;28;20159;-56
2023/03/10 04:02:00;;;;;;;0.08;0.08;;;;;;;15.96;42.53;99112.88;2103114;28;20052;-57
2023/03/10 04:03:02;;;;;;;0.10;0.10;;;;;;;15.94;42.42;99104.34;2103718;28;20048;-57
2023/03/10 04:04:06;;;;;;;0.10;0.10;;;;;;;15.95;42.34;99111.31;2096808;28;20048;-57
2023/03/10 04:05:09;;;;;;;0.00;0.00;;;;;;;15.95;42.43;99105.13;2093858;28;20085;-56
2023/03/10 04:06:12;;;;;;;0.05;0.05;;;;;;;15.96;42.34;99104.69;2092827;28;20055;-57
2023/03/10 04:07:15;;;;;;;0.05;0.05;;;;;;;15.97;42.46;99108.94;2092401;28;20056;-57
2023/03/10 04:08:19;;;;;;;0.10;0.10;;;;;;;15.96;42.23;99109.38;2085978;28;20053;-56
2023/03/10 04:09:21;;;;;;;0.10;0.10;;;;;;;15.96;42.27;99112.88;2092244;28;20632;-56
2023/03/10 04:10:25;;;;;;;0.10;0.10;;;;;;;15.96;42.43;99110.16;2097159;28;20627;-56
2023/03/10 04:11:29;;;;;;;0.05;0.05;;;;;;;15.96;42.30;99112.88;2098777;28;20055;-56
2023/03/10 04:12:31;;;;;;;0.10;0.10;;;;;;;15.95;42.46;99107.84;2098779;28;20502;-56
2023/03/10 04:13:34;;;;;;;0.10;0.10;;;;;;;15.95;42.28;99111.31;2097186;28;20088;-58
2023/03/10 04:14:36;;;;;;;0.03;0.03;;;;;;;15.93;42.19;99100.09;2095716;28;20086;-57
2023/03/10 04:15:39;;;;;;;0.10;0.10;;;;;;;15.95;42.33;99100.41;2089143;28;20076;-57
2023/03/10 04:16:42;;;;;;;0.00;0.00;;;;;;;15.95;42.44;99111.31;2088747;28;20558;-57
2023/03/10 04:17:47;;;;;;;0.10;0.10;;;;;;;15.96;42.41;99098.47;2089845;28;20049;-57
2023/03/10 04:18:50;;;;;;;0.03;0.03;;;;;;;15.94;42.38;99104.34;2084717;28;20049;-56
2023/03/10 04:19:52;;;;;;;0.10;0.10;;;;;;;15.95;42.29;99099.69;2092409;28;20068;-56
2023/03/10 04:21:09;;;;;;;0.00;0.00;;;;;;;15.91;42.24;99102.47;2099693;28;20086;-56
2023/03/10 04:22:11;;;;;;;0.10;0.10;;;;;;;15.92;42.33;99106.69;2102181;28;20053;-57
2023/03/10 04:23:15;;;;;;;0.10;0.10;;;;;;;15.93;42.30;99107.47;2090615;28;20136;-57
2023/03/10 04:24:17;;;;;;;0.00;0.00;;;;;;;15.92;41.89;99103.97;2101712;28;20505;-58
2023/03/10 04:25:19;;;;;;;0.08;0.08;;;;;;;15.92;42.37;99105.97;2102745;28;20540;-56
2023/03/10 04:26:22;;;;;;;0.10;0.10;;;;;;;15.91;42.15;99102.47;2096413;28;20139;-54
2023/03/10 04:27:25;;;;;;;0.00;0.00;;;;;;;15.92;42.21;99103.25;2094275;28;20053;-58
2023/03/10 04:28:27;;;;;;;0.10;0.10;;;;;;;15.93;42.13;99112.94;2096384;28;20559;-56
2023/03/10 04:29:30;;;;;;;0.10;0.10;;;;;;;15.92;42.15;99111.41;2102767;28;20103;-57
2023/03/10 04:30:33;;;;;;;0.10;0.10;;;;;;;15.91;42.22;99099.75;2103730;28;20093;-57
2023/03/10 04:31:37;;;;;;;0.03;0.03;;;;;;;15.92;42.01;99108.69;2087995;28;20049;-56
2023/03/10 04:32:40;;;;;;;0.10;0.10;;;;;;;15.92;42.19;99111.41;2088703;28;20045;-57
2023/03/10 04:33:46;;;;;;;0.10;0.10;;;;;;;15.92;42.29;99117.59;2093610;28;20433;-57
2023/03/10 04:34:48;;;;;;;0.10;0.10;;;;;;;15.91;42.19;99110.63;2103722;28;20063;-57
2023/03/10 04:35:52;;;;;;;0.10;0.10;;;;;;;15.91;42.17;99107.91;2101453;28;20127;-57
2023/03/10 04:36:56;;;;;;;0.10;0.10;;;;;;;15.91;42.09;99107.91;2094836;28;20053;-56
2023/03/10 04:37:59;;;;;;;0.10;0.10;;;;;;;15.90;42.19;99109.06;2096708;28;20578;-56
2023/03/10 04:39:03;;;;;;;0.10;0.10;;;;;;;15.89;42.06;99107.53;2094301;28;20068;-56
2023/03/10 04:40:10;;;;;;;0.10;0.10;;;;;;;15.92;42.27;99116.84;2102059;28;20044;-57
2023/03/10 04:41:14;;;;;;;0.00;0.00;;;;;;;15.90;42.20;99114.50;2098484;28;20049;-56
2023/03/10 04:42:19;;;;;;;0.00;0.00;;;;;;;15.90;42.27;99108.31;2092719;28;20541;-57
2023/03/10 04:43:21;;;;;;;0.00;0.00;;;;;;;15.91;42.22;99126.19;2090765;28;20115;-56
2023/03/10 04:44:25;;;;;;;0.10;0.10;;;;;;;15.90;42.19;99103.63;2088466;28;20056;-57
2023/03/10 04:45:35;;;;;;;0.10;0.10;;;;;;;15.86;42.31;99104.88;2093532;28;20072;-56
2023/03/10 04:46:37;;;;;;;0.05;0.05;;;;;;;15.88;42.13;99105.25;2099958;28;20880;-56
2023/03/10 04:47:41;;;;;;;0.08;0.08;;;;;;;15.88;42.14;99103.28;2093685;28;20150;-56
2023/03/10 04:48:45;;;;;;;0.10;0.10;;;;;;;15.89;42.04;99112.22;2098285;28;20052;-56
2023/03/10 04:49:48;;;;;;;0.00;0.00;;;;;;;15.88;42.04;99106.03;2103701;28;20130;-56
2023/03/10 04:50:54;;;;;;;0.17;0.17;;;;;;;15.89;41.92;99101.31;2096442;28;20087;-56
2023/03/10 04:51:57;;;;;;;0.00;0.00;;;;;;;15.87;42.14;99101.75;2088170;28;20052;-57
2023/03/10 04:52:59;;;;;;;0.10;0.10;;;;;;;15.87;42.18;99093.56;2096162;28;20083;-57
2023/03/10 04:54:05;;;;;;;0.00;0.00;;;;;;;15.86;42.11;99097.50;2104177;28;20056;-56
2023/03/10 04:55:08;;;;;;;0.08;0.08;;;;;;;15.86;41.89;99099.44;2099633;28;20377;-56
2023/03/10 04:56:11;;;;;;;0.10;0.10;;;;;;;15.87;41.92;99095.56;2104009;28;20481;-57
2023/03/10 04:57:15;;;;;;;0.00;0.00;;;;;;;15.87;41.80;99101.75;2103683;28;20444;-56
2023/03/10 04:58:19;;;;;;;0.08;0.08;;;;;;;15.86;42.02;99097.50;2101370;28;20079;-56
2023/03/10 04:59:20;;;;;;;0.10;0.10;;;;;;;15.87;41.90;99101.00;2096043;28;20044;-56
2023/03/10 05:00:24;;;;;;;0.10;0.10;;;;;;;15.86;42.00;99105.66;2104542;28;20087;-57
2023/03/10 05:01:31;;;;;;;0.10;0.10;;;;;;;15.85;41.94;99098.69;2098600;28;20071;-57
2023/03/10 05:02:37;;;;;;;0.10;0.10;;;;;;;15.84;42.02;99094.41;2089579;28;20542;-57